sensor_id;sensor_type;location;lat;lon;timestamp;P1;durP1;ratioP1;P2;durP2;ratioP2
25637;SDS011;13496;51.040;13.680;2023-02-28T00:00:53;2.87;;;2.67;;
25637;SDS011;13496;51.040;13.680;2023-02-28T00:05:54;2.73;;;2.53;;
25637;SDS011;13496;51.040;13.680;2023-02-28T00:11:00;3.10;;;2.90;;
25637;SDS011;13496;51.040;13.680;2023-02-28T00:16:07;2.80;;;2.60;;
25637;SDS011;13496;51.040;13.680;2023-02-28T00:21:10;2.97;;;2.77;;
25637;SDS011;13496;51.040;13.680;2023-02-28T00:26:12;2.77;;;2.57;;
25637;SDS011;13496;51.040;13.680;2023-02-28T00:31:16;2.60;;;2.40;;
25637;SDS011;13496;51.040;13.680;2023-02-28T00:36:17;2.67;;;2.47;;
25637;SDS011;13496;51.040;13.680;2023-02-28T00:41:19;3.20;;;2.90;;
25637;SDS011;13496;51.040;13.680;2023-02-28T00:46:22;2.53;;;2.37;;
25637;SDS011;13496;51.040;13.680;2023-02-28T00:51:25;3.07;;;2.70;;
25637;SDS011;13496;51.040;13.680;2023-02-28T00:56:27;3.10;;;2.80;;
25637;SDS011;13496;51.040;13.680;2023-02-28T01:01:29;3.00;;;2.70;;
25637;SDS011;13496;51.040;13.680;2023-02-28T01:06:30;2.90;;;2.67;;
25637;SDS011;13496;51.040;13.680;2023-02-28T01:11:33;2.73;;;2.53;;
25637;SDS011;13496;51.040;13.680;2023-02-28T01:16:35;2.93;;;2.70;;
25637;SDS011;13496;51.040;13.680;2023-02-28T01:21:38;2.57;;;2.37;;
25637;SDS011;13496;51.040;13.680;2023-02-28T01:26:40;2.90;;;2.70;;
25637;SDS011;13496;51.040;13.680;2023-02-28T01:31:42;2.77;;;2.30;;
25637;SDS011;13496;51.040;13.680;2023-02-28T01:36:44;2.80;;;2.57;;
25637;SDS011;13496;51.040;13.680;2023-02-28T01:41:47;2.77;;;2.57;;
25637;SDS011;13496;51.040;13.680;2023-02-28T01:46:48;3.10;;;2.73;;
25637;SDS011;13496;51.040;13.680;2023-02-28T01:51:50;3.43;;;2.70;;
25637;SDS011;13496;51.040;13.680;2023-02-28T01:57:12;2.73;;;2.47;;
25637;SDS011;13496;51.040;13.680;2023-02-28T02:02:19;2.77;;;2.57;;
25637;SDS011;13496;51.040;13.680;2023-02-28T02:07:23;3.00;;;2.70;;
25637;SDS011;13496;51.040;13.680;2023-02-28T02:17:44;3.07;;;2.77;;
25637;SDS011;13496;51.040;13.680;2023-02-28T02:23:13;2.70;;;2.50;;
25637;SDS011;13496;51.040;13.680;2023-02-28T02:33:46;2.40;;;2.23;;
25637;SDS011;13496;51.040;13.680;2023-02-28T02:39:19;2.67;;;2.47;;
25637;SDS011;13496;51.040;13.680;2023-02-28T02:44:58;2.33;;;2.20;;
25637;SDS011;13496;51.040;13.680;2023-02-28T02:50:07;2.83;;;2.63;;
25637;SDS011;13496;51.040;13.680;2023-02-28T02:55:13;2.63;;;2.43;;
25637;SDS011;13496;51.040;13.680;2023-02-28T03:00:17;2.50;;;2.30;;
25637;SDS011;13496;51.040;13.680;2023-02-28T03:05:25;2.47;;;2.30;;
25637;SDS011;13496;51.040;13.680;2023-02-28T03:21:10;2.77;;;2.57;;
25637;SDS011;13496;51.040;13.680;2023-02-28T03:26:31;2.50;;;2.30;;
25637;SDS011;13496;51.040;13.680;2023-02-28T03:31:39;2.60;;;2.40;;
25637;SDS011;13496;51.040;13.680;2023-02-28T03:36:47;2.67;;;2.47;;
25637;SDS011;13496;51.040;13.680;2023-02-28T03:41:57;2.50;;;2.30;;
25637;SDS011;13496;51.040;13.680;2023-02-28T03:47:04;2.47;;;2.27;;
25637;SDS011;13496;51.040;13.680;2023-02-28T03:52:14;2.77;;;2.57;;
25637;SDS011;13496;51.040;13.680;2023-02-28T03:57:24;3.03;;;2.40;;
25637;SDS011;13496;51.040;13.680;2023-02-28T04:02:32;2.97;;;2.30;;
25637;SDS011;13496;51.040;13.680;2023-02-28T04:07:34;2.87;;;2.67;;
25637;SDS011;13496;51.040;13.680;2023-02-28T04:12:36;2.53;;;2.33;;
25637;SDS011;13496;51.040;13.680;2023-02-28T04:17:38;2.40;;;2.20;;
25637;SDS011;13496;51.040;13.680;2023-02-28T04:22:40;2.30;;;2.10;;
25637;SDS011;13496;51.040;13.680;2023-02-28T04:27:41;2.33;;;2.17;;
25637;SDS011;13496;51.040;13.680;2023-02-28T04:32:45;2.73;;;2.27;;
25637;SDS011;13496;51.040;13.680;2023-02-28T04:37:47;2.57;;;2.37;;
25637;SDS011;13496;51.040;13.680;2023-02-28T04:42:49;2.70;;;2.50;;
25637;SDS011;13496;51.040;13.680;2023-02-28T04:47:50;2.43;;;2.23;;
25637;SDS011;13496;51.040;13.680;2023-02-28T04:52:52;2.40;;;2.20;;
25637;SDS011;13496;51.040;13.680;2023-02-28T04:57:53;2.70;;;2.50;;
25637;SDS011;13496;51.040;13.680;2023-02-28T05:02:55;2.80;;;2.60;;
25637;SDS011;13496;51.040;13.680;2023-02-28T05:07:57;3.40;;;2.77;;
25637;SDS011;13496;51.040;13.680;2023-02-28T05:12:58;2.70;;;2.50;;
25637;SDS011;13496;51.040;13.680;2023-02-28T05:18:00;2.43;;;2.23;;
25637;SDS011;13496;51.040;13.680;2023-02-28T05:23:02;2.37;;;2.17;;
25637;SDS011;13496;51.040;13.680;2023-02-28T05:28:04;2.90;;;2.60;;
25637;SDS011;13496;51.040;13.680;2023-02-28T05:33:09;2.73;;;2.53;;
25637;SDS011;13496;51.040;13.680;2023-02-28T05:38:12;2.57;;;2.37;;
25637;SDS011;13496;51.040;13.680;2023-02-28T05:43:14;2.73;;;2.43;;
25637;SDS011;13496;51.040;13.680;2023-02-28T05:48:15;2.83;;;2.50;;
25637;SDS011;13496;51.040;13.680;2023-02-28T05:53:18;2.50;;;2.30;;
25637;SDS011;13496;51.040;13.680;2023-02-28T05:58:19;2.87;;;2.57;;
25637;SDS011;13496;51.040;13.680;2023-02-28T06:03:21;3.57;;;2.37;;
25637;SDS011;13496;51.040;13.680;2023-02-28T06:08:23;2.60;;;2.30;;
25637;SDS011;13496;51.040;13.680;2023-02-28T06:13:24;2.97;;;2.60;;
25637;SDS011;13496;51.040;13.680;2023-02-28T06:18:26;2.30;;;2.10;;
25637;SDS011;13496;51.040;13.680;2023-02-28T06:23:28;2.47;;;2.27;;
25637;SDS011;13496;51.040;13.680;2023-02-28T06:28:29;4.60;;;2.53;;
25637;SDS011;13496;51.040;13.680;2023-02-28T06:33:31;3.70;;;2.63;;
25637;SDS011;13496;51.040;13.680;2023-02-28T06:38:33;5.90;;;2.63;;
25637;SDS011;13496;51.040;13.680;2023-02-28T06:43:36;2.70;;;2.50;;
25637;SDS011;13496;51.040;13.680;2023-02-28T06:48:40;3.17;;;2.87;;
25637;SDS011;13496;51.040;13.680;2023-02-28T06:53:44;2.80;;;2.60;;
25637;SDS011;13496;51.040;13.680;2023-02-28T06:58:46;2.80;;;2.50;;
25637;SDS011;13496;51.040;13.680;2023-02-28T07:03:49;3.20;;;2.87;;
25637;SDS011;13496;51.040;13.680;2023-02-28T07:08:53;3.10;;;2.80;;
25637;SDS011;13496;51.040;13.680;2023-02-28T07:13:56;2.90;;;2.53;;
25637;SDS011;13496;51.040;13.680;2023-02-28T07:18:58;4.80;;;2.70;;
25637;SDS011;13496;51.040;13.680;2023-02-28T07:24:00;2.73;;;2.53;;
25637;SDS011;13496;51.040;13.680;2023-02-28T07:29:01;3.20;;;2.90;;
25637;SDS011;13496;51.040;13.680;2023-02-28T07:34:03;3.97;;;2.70;;
25637;SDS011;13496;51.040;13.680;2023-02-28T07:39:05;2.67;;;2.47;;
25637;SDS011;13496;51.040;13.680;2023-02-28T07:44:07;4.50;;;2.70;;
25637;SDS011;13496;51.040;13.680;2023-02-28T07:49:09;4.37;;;2.80;;
25637;SDS011;13496;51.040;13.680;2023-02-28T07:54:10;3.23;;;2.93;;
25637;SDS011;13496;51.040;13.680;2023-02-28T07:59:12;3.97;;;2.87;;
25637;SDS011;13496;51.040;13.680;2023-02-28T08:04:14;4.60;;;2.87;;
25637;SDS011;13496;51.040;13.680;2023-02-28T08:09:15;3.23;;;2.67;;
25637;SDS011;13496;51.040;13.680;2023-02-28T08:14:17;3.67;;;2.50;;
25637;SDS011;13496;51.040;13.680;2023-02-28T08:19:19;2.60;;;2.40;;
25637;SDS011;13496;51.040;13.680;2023-02-28T08:24:20;5.10;;;2.87;;
25637;SDS011;13496;51.040;13.680;2023-02-28T08:29:22;2.83;;;2.63;;
25637;SDS011;13496;51.040;13.680;2023-02-28T08:34:24;5.10;;;2.80;;
25637;SDS011;13496;51.040;13.680;2023-02-28T08:39:26;3.00;;;2.70;;
25637;SDS011;13496;51.040;13.680;2023-02-28T08:44:27;3.47;;;2.70;;
25637;SDS011;13496;51.040;13.680;2023-02-28T08:49:29;3.10;;;2.53;;
25637;SDS011;13496;51.040;13.680;2023-02-28T08:54:31;3.30;;;2.90;;
25637;SDS011;13496;51.040;13.680;2023-02-28T08:59:34;3.00;;;2.53;;
25637;SDS011;13496;51.040;13.680;2023-02-28T09:04:36;2.90;;;2.70;;
25637;SDS011;13496;51.040;13.680;2023-02-28T09:09:37;2.80;;;2.50;;
25637;SDS011;13496;51.040;13.680;2023-02-28T09:14:54;3.10;;;2.80;;
25637;SDS011;13496;51.040;13.680;2023-02-28T09:19:56;4.77;;;3.20;;
25637;SDS011;13496;51.040;13.680;2023-02-28T09:24:59;3.80;;;3.00;;
25637;SDS011;13496;51.040;13.680;2023-02-28T09:30:00;3.30;;;2.80;;
25637;SDS011;13496;51.040;13.680;2023-02-28T09:35:02;3.50;;;2.83;;
25637;SDS011;13496;51.040;13.680;2023-02-28T09:40:04;3.33;;;2.60;;
25637;SDS011;13496;51.040;13.680;2023-02-28T09:45:11;3.00;;;2.70;;
25637;SDS011;13496;51.040;13.680;2023-02-28T09:50:31;3.17;;;2.67;;
25637;SDS011;13496;51.040;13.680;2023-02-28T09:55:39;2.83;;;2.63;;
25637;SDS011;13496;51.040;13.680;2023-02-28T10:00:46;3.17;;;2.87;;
25637;SDS011;13496;51.040;13.680;2023-02-28T10:11:09;3.13;;;2.83;;
25637;SDS011;13496;51.040;13.680;2023-02-28T10:16:17;2.93;;;2.73;;
25637;SDS011;13496;51.040;13.680;2023-02-28T10:26:36;3.13;;;2.83;;
25637;SDS011;13496;51.040;13.680;2023-02-28T10:31:38;3.37;;;2.63;;
25637;SDS011;13496;51.040;13.680;2023-02-28T10:36:41;2.90;;;2.60;;
25637;SDS011;13496;51.040;13.680;2023-02-28T10:41:50;4.03;;;2.47;;
25637;SDS011;13496;51.040;13.680;2023-02-28T10:46:51;5.37;;;2.77;;
25637;SDS011;13496;51.040;13.680;2023-02-28T10:51:57;3.43;;;3.13;;
25637;SDS011;13496;51.040;13.680;2023-02-28T11:02:31;3.10;;;2.80;;
25637;SDS011;13496;51.040;13.680;2023-02-28T11:07:38;3.07;;;2.57;;
25637;SDS011;13496;51.040;13.680;2023-02-28T11:12:40;3.13;;;2.77;;
25637;SDS011;13496;51.040;13.680;2023-02-28T11:17:44;2.73;;;2.50;;
25637;SDS011;13496;51.040;13.680;2023-02-28T11:22:55;2.90;;;2.70;;
25637;SDS011;13496;51.040;13.680;2023-02-28T11:27:59;2.60;;;2.40;;
25637;SDS011;13496;51.040;13.680;2023-02-28T11:33:27;2.77;;;2.57;;
25637;SDS011;13496;51.040;13.680;2023-02-28T11:38:31;3.17;;;2.67;;
25637;SDS011;13496;51.040;13.680;2023-02-28T11:54:59;2.60;;;2.40;;
25637;SDS011;13496;51.040;13.680;2023-02-28T12:05:46;2.87;;;2.60;;
25637;SDS011;13496;51.040;13.680;2023-02-28T12:11:06;3.13;;;2.83;;
25637;SDS011;13496;51.040;13.680;2023-02-28T12:16:28;2.80;;;2.60;;
25637;SDS011;13496;51.040;13.680;2023-02-28T12:21:46;2.70;;;2.50;;
25637;SDS011;13496;51.040;13.680;2023-02-28T12:26:59;3.30;;;2.77;;
25637;SDS011;13496;51.040;13.680;2023-02-28T12:32:12;2.90;;;2.60;;
25637;SDS011;13496;51.040;13.680;2023-02-28T12:37:22;2.87;;;2.60;;
25637;SDS011;13496;51.040;13.680;2023-02-28T12:42:29;3.00;;;2.70;;
25637;SDS011;13496;51.040;13.680;2023-02-28T12:47:35;2.93;;;2.70;;
25637;SDS011;13496;51.040;13.680;2023-02-28T12:58:34;2.80;;;2.60;;
25637;SDS011;13496;51.040;13.680;2023-02-28T13:09:16;2.60;;;2.40;;
25637;SDS011;13496;51.040;13.680;2023-02-28T13:24:53;2.90;;;2.70;;
25637;SDS011;13496;51.040;13.680;2023-02-28T13:29:55;3.70;;;2.90;;
25637;SDS011;13496;51.040;13.680;2023-02-28T13:55:29;2.97;;;2.73;;
25637;SDS011;13496;51.040;13.680;2023-02-28T14:00:45;2.90;;;2.53;;
25637;SDS011;13496;51.040;13.680;2023-02-28T14:06:16;2.70;;;2.50;;
25637;SDS011;13496;51.040;13.680;2023-02-28T14:16:44;2.93;;;2.70;;
25637;SDS011;13496;51.040;13.680;2023-02-28T14:27:17;5.00;;;2.77;;
25637;SDS011;13496;51.040;13.680;2023-02-28T14:37:55;2.80;;;2.60;;
25637;SDS011;13496;51.040;13.680;2023-02-28T14:43:04;3.70;;;2.50;;
25637;SDS011;13496;51.040;13.680;2023-02-28T14:48:10;3.30;;;3.00;;
25637;SDS011;13496;51.040;13.680;2023-02-28T14:53:15;3.03;;;2.73;;
25637;SDS011;13496;51.040;13.680;2023-02-28T14:58:22;2.87;;;2.60;;
25637;SDS011;13496;51.040;13.680;2023-02-28T15:03:33;3.10;;;2.80;;
25637;SDS011;13496;51.040;13.680;2023-02-28T15:08:37;2.63;;;2.43;;
25637;SDS011;13496;51.040;13.680;2023-02-28T15:13:42;3.10;;;2.80;;
25637;SDS011;13496;51.040;13.680;2023-02-28T15:18:48;3.07;;;2.80;;
25637;SDS011;13496;51.040;13.680;2023-02-28T15:29:15;3.27;;;2.70;;
25637;SDS011;13496;51.040;13.680;2023-02-28T15:34:24;4.27;;;3.00;;
25637;SDS011;13496;51.040;13.680;2023-02-28T15:39:40;2.93;;;2.67;;
25637;SDS011;13496;51.040;13.680;2023-02-28T15:44:45;3.10;;;2.80;;
25637;SDS011;13496;51.040;13.680;2023-02-28T15:49:48;3.17;;;2.87;;
25637;SDS011;13496;51.040;13.680;2023-02-28T15:54:52;3.13;;;2.73;;
25637;SDS011;13496;51.040;13.680;2023-02-28T16:00:00;4.43;;;3.07;;
25637;SDS011;13496;51.040;13.680;2023-02-28T16:10:22;3.37;;;2.97;;
25637;SDS011;13496;51.040;13.680;2023-02-28T16:15:28;4.70;;;3.27;;
25637;SDS011;13496;51.040;13.680;2023-02-28T16:20:32;3.73;;;3.33;;
25637;SDS011;13496;51.040;13.680;2023-02-28T16:25:38;3.47;;;3.17;;
25637;SDS011;13496;51.040;13.680;2023-02-28T16:30:42;3.37;;;3.07;;
25637;SDS011;13496;51.040;13.680;2023-02-28T16:35:43;4.37;;;3.37;;
25637;SDS011;13496;51.040;13.680;2023-02-28T16:40:45;3.60;;;3.30;;
25637;SDS011;13496;51.040;13.680;2023-02-28T16:45:47;3.53;;;3.23;;
25637;SDS011;13496;51.040;13.680;2023-02-28T16:50:48;4.27;;;3.40;;
25637;SDS011;13496;51.040;13.680;2023-02-28T16:55:50;3.50;;;3.20;;
25637;SDS011;13496;51.040;13.680;2023-02-28T17:00:52;3.73;;;3.40;;
25637;SDS011;13496;51.040;13.680;2023-02-28T17:05:53;4.10;;;3.20;;
25637;SDS011;13496;51.040;13.680;2023-02-28T17:10:55;5.47;;;3.30;;
25637;SDS011;13496;51.040;13.680;2023-02-28T17:15:57;3.43;;;3.10;;
25637;SDS011;13496;51.040;13.680;2023-02-28T17:21:02;5.03;;;3.50;;
25637;SDS011;13496;51.040;13.680;2023-02-28T17:26:03;3.93;;;3.13;;
25637;SDS011;13496;51.040;13.680;2023-02-28T17:31:08;4.17;;;3.20;;
25637;SDS011;13496;51.040;13.680;2023-02-28T17:36:11;5.60;;;3.33;;
25637;SDS011;13496;51.040;13.680;2023-02-28T17:41:16;4.50;;;3.27;;
25637;SDS011;13496;51.040;13.680;2023-02-28T17:46:21;3.50;;;3.20;;
25637;SDS011;13496;51.040;13.680;2023-02-28T17:51:25;3.70;;;3.40;;
25637;SDS011;13496;51.040;13.680;2023-02-28T17:56:27;4.87;;;3.47;;
25637;SDS011;13496;51.040;13.680;2023-02-28T18:01:28;4.00;;;3.60;;
25637;SDS011;13496;51.040;13.680;2023-02-28T18:06:35;3.90;;;3.50;;
25637;SDS011;13496;51.040;13.680;2023-02-28T18:11:48;5.60;;;3.87;;
25637;SDS011;13496;51.040;13.680;2023-02-28T18:16:51;5.63;;;3.60;;
25637;SDS011;13496;51.040;13.680;2023-02-28T18:21:54;5.07;;;3.97;;
25637;SDS011;13496;51.040;13.680;2023-02-28T18:26:55;5.20;;;4.00;;
25637;SDS011;13496;51.040;13.680;2023-02-28T18:31:58;4.57;;;3.70;;
25637;SDS011;13496;51.040;13.680;2023-02-28T18:37:02;5.07;;;3.63;;
25637;SDS011;13496;51.040;13.680;2023-02-28T18:42:04;5.53;;;3.50;;
25637;SDS011;13496;51.040;13.680;2023-02-28T18:47:06;3.60;;;3.20;;
25637;SDS011;13496;51.040;13.680;2023-02-28T18:52:08;5.20;;;3.90;;
25637;SDS011;13496;51.040;13.680;2023-02-28T18:57:10;5.43;;;3.80;;
25637;SDS011;13496;51.040;13.680;2023-02-28T19:02:11;7.30;;;4.13;;
25637;SDS011;13496;51.040;13.680;2023-02-28T19:07:13;4.17;;;3.77;;
25637;SDS011;13496;51.040;13.680;2023-02-28T19:12:15;6.83;;;4.33;;
25637;SDS011;13496;51.040;13.680;2023-02-28T19:17:17;4.50;;;4.10;;
25637;SDS011;13496;51.040;13.680;2023-02-28T19:22:19;5.20;;;4.13;;
25637;SDS011;13496;51.040;13.680;2023-02-28T19:27:21;5.37;;;4.20;;
25637;SDS011;13496;51.040;13.680;2023-02-28T19:32:22;6.80;;;4.53;;
25637;SDS011;13496;51.040;13.680;2023-02-28T19:37:24;5.10;;;3.90;;
25637;SDS011;13496;51.040;13.680;2023-02-28T19:42:25;4.60;;;4.10;;
25637;SDS011;13496;51.040;13.680;2023-02-28T19:47:33;5.20;;;4.30;;
25637;SDS011;13496;51.040;13.680;2023-02-28T19:52:34;7.43;;;4.67;;
25637;SDS011;13496;51.040;13.680;2023-02-28T19:57:36;6.43;;;4.50;;
25637;SDS011;13496;51.040;13.680;2023-02-28T20:02:38;5.37;;;4.30;;
25637;SDS011;13496;51.040;13.680;2023-02-28T20:07:40;4.53;;;4.10;;
25637;SDS011;13496;51.040;13.680;2023-02-28T20:12:42;8.00;;;4.90;;
25637;SDS011;13496;51.040;13.680;2023-02-28T20:17:44;5.77;;;4.27;;
25637;SDS011;13496;51.040;13.680;2023-02-28T20:22:48;6.03;;;4.40;;
25637;SDS011;13496;51.040;13.680;2023-02-28T20:27:50;4.63;;;4.10;;
25637;SDS011;13496;51.040;13.680;2023-02-28T20:32:51;5.03;;;4.20;;
25637;SDS011;13496;51.040;13.680;2023-02-28T20:37:53;6.57;;;4.87;;
25637;SDS011;13496;51.040;13.680;2023-02-28T20:42:54;5.30;;;4.80;;
25637;SDS011;13496;51.040;13.680;2023-02-28T20:47:56;5.67;;;4.67;;
25637;SDS011;13496;51.040;13.680;2023-02-28T20:52:58;5.63;;;4.83;;
25637;SDS011;13496;51.040;13.680;2023-02-28T20:57:59;5.60;;;5.00;;
25637;SDS011;13496;51.040;13.680;2023-02-28T21:03:01;5.03;;;4.60;;
25637;SDS011;13496;51.040;13.680;2023-02-28T21:08:03;6.73;;;5.33;;
25637;SDS011;13496;51.040;13.680;2023-02-28T21:13:05;6.93;;;5.37;;
25637;SDS011;13496;51.040;13.680;2023-02-28T21:18:06;6.90;;;5.00;;
25637;SDS011;13496;51.040;13.680;2023-02-28T21:23:08;6.70;;;5.40;;
25637;SDS011;13496;51.040;13.680;2023-02-28T21:28:09;6.70;;;5.40;;
25637;SDS011;13496;51.040;13.680;2023-02-28T21:33:11;6.50;;;5.80;;
25637;SDS011;13496;51.040;13.680;2023-02-28T21:38:13;6.73;;;5.67;;
25637;SDS011;13496;51.040;13.680;2023-02-28T21:43:14;6.30;;;5.63;;
25637;SDS011;13496;51.040;13.680;2023-02-28T21:48:16;6.80;;;5.80;;
25637;SDS011;13496;51.040;13.680;2023-02-28T21:53:18;6.13;;;5.20;;
25637;SDS011;13496;51.040;13.680;2023-02-28T21:58:19;6.10;;;5.53;;
25637;SDS011;13496;51.040;13.680;2023-02-28T22:03:21;6.43;;;5.83;;
25637;SDS011;13496;51.040;13.680;2023-02-28T22:08:23;6.67;;;5.53;;
25637;SDS011;13496;51.040;13.680;2023-02-28T22:13:24;6.37;;;5.30;;
25637;SDS011;13496;51.040;13.680;2023-02-28T22:18:26;6.23;;;5.43;;
25637;SDS011;13496;51.040;13.680;2023-02-28T22:23:28;6.57;;;5.60;;
25637;SDS011;13496;51.040;13.680;2023-02-28T22:28:30;6.23;;;5.27;;
25637;SDS011;13496;51.040;13.680;2023-02-28T22:33:31;7.03;;;6.23;;
25637;SDS011;13496;51.040;13.680;2023-02-28T22:38:33;6.27;;;5.67;;
25637;SDS011;13496;51.040;13.680;2023-02-28T22:43:36;7.17;;;6.47;;
25637;SDS011;13496;51.040;13.680;2023-02-28T22:48:39;6.53;;;5.90;;
25637;SDS011;13496;51.040;13.680;2023-02-28T22:53:41;6.20;;;5.60;;
25637;SDS011;13496;51.040;13.680;2023-02-28T22:59:02;7.70;;;6.50;;
25637;SDS011;13496;51.040;13.680;2023-02-28T23:04:04;6.60;;;6.00;;
25637;SDS011;13496;51.040;13.680;2023-02-28T23:09:12;7.47;;;6.30;;
25637;SDS011;13496;51.040;13.680;2023-02-28T23:14:19;6.50;;;5.90;;
25637;SDS011;13496;51.040;13.680;2023-02-28T23:19:23;6.87;;;6.17;;
25637;SDS011;13496;51.040;13.680;2023-02-28T23:24:27;6.30;;;5.37;;
25637;SDS011;13496;51.040;13.680;2023-02-28T23:29:31;6.23;;;5.63;;
25637;SDS011;13496;51.040;13.680;2023-02-28T23:34:33;6.53;;;5.93;;
25637;SDS011;13496;51.040;13.680;2023-02-28T23:39:35;7.17;;;6.47;;
25637;SDS011;13496;51.040;13.680;2023-02-28T23:44:37;7.03;;;6.37;;
25637;SDS011;13496;51.040;13.680;2023-02-28T23:49:39;6.50;;;5.90;;
25637;SDS011;13496;51.040;13.680;2023-02-28T23:54:40;6.50;;;5.90;;
25637;SDS011;13496;51.040;13.680;2023-02-28T23:59:42;6.57;;;5.97;;
